Roseira, Brazil
Current Conditions -  °F | °C
As of 6:00 AM on Wednesday 26 Nov 2014 (Local Time) from SBGW Reporting Station
Broken Clouds Broken Clouds  
Wind Chill: 73°   Ceiling: 8000
Heat Index: 73°   Visibility: 5mi
Dew Point: 68°   Wind: 2mph
Humidity: 83%   Direction: 90°E
Pressure: 29.8"   Gusts: NA
Location:  22.9°S, 45.31°W
Report Text: SBGW 260800Z 09002KT 8000 SCT020 BKN080 23/20 Q1009
Loading
Personal Weather Stations






























Interactive Weather Map New forecast layout! Learn more

10-Day Weather Forecast

Advertisements
Track Severe Weather on mobile